sensor_id;sensor_type;location;lat;lon;timestamp;P1;durP1;ratioP1;P2;durP2;ratioP2
56171;SDS011;42052;41.634;-0.946;2023-04-03T00:01:53;12.10;;;5.13;;
56171;SDS011;42052;41.634;-0.946;2023-04-03T00:04:39;13.68;;;5.22;;
56171;SDS011;42052;41.634;-0.946;2023-04-03T00:07:25;14.35;;;5.15;;
56171;SDS011;42052;41.634;-0.946;2023-04-03T00:10:11;19.27;;;5.95;;
56171;SDS011;42052;41.634;-0.946;2023-04-03T00:12:59;14.85;;;5.20;;
56171;SDS011;42052;41.634;-0.946;2023-04-03T00:15:45;16.55;;;5.57;;
56171;SDS011;42052;41.634;-0.946;2023-04-03T00:18:31;14.73;;;5.30;;
56171;SDS011;42052;41.634;-0.946;2023-04-03T00:21:17;11.43;;;4.82;;
56171;SDS011;42052;41.634;-0.946;2023-04-03T00:24:03;11.27;;;4.35;;
56171;SDS011;42052;41.634;-0.946;2023-04-03T00:26:49;11.30;;;4.70;;
56171;SDS011;42052;41.634;-0.946;2023-04-03T00:29:36;11.13;;;4.60;;
56171;SDS011;42052;41.634;-0.946;2023-04-03T00:32:22;11.50;;;3.90;;
56171;SDS011;42052;41.634;-0.946;2023-04-03T00:35:08;11.88;;;4.22;;
56171;SDS011;42052;41.634;-0.946;2023-04-03T00:37:55;11.77;;;4.00;;
56171;SDS011;42052;41.634;-0.946;2023-04-03T00:40:42;9.73;;;3.75;;
56171;SDS011;42052;41.634;-0.946;2023-04-03T00:43:30;9.10;;;3.75;;
56171;SDS011;42052;41.634;-0.946;2023-04-03T00:46:19;9.40;;;3.72;;
56171;SDS011;42052;41.634;-0.946;2023-04-03T00:49:05;9.07;;;3.67;;
56171;SDS011;42052;41.634;-0.946;2023-04-03T00:51:51;10.38;;;3.83;;
56171;SDS011;42052;41.634;-0.946;2023-04-03T00:54:39;8.10;;;3.28;;
56171;SDS011;42052;41.634;-0.946;2023-04-03T00:57:27;9.90;;;3.65;;
56171;SDS011;42052;41.634;-0.946;2023-04-03T01:00:16;8.70;;;3.20;;
56171;SDS011;42052;41.634;-0.946;2023-04-03T01:03:05;6.57;;;2.75;;
56171;SDS011;42052;41.634;-0.946;2023-04-03T01:05:51;8.82;;;3.70;;
56171;SDS011;42052;41.634;-0.946;2023-04-03T01:08:37;7.20;;;2.83;;
56171;SDS011;42052;41.634;-0.946;2023-04-03T01:11:24;5.63;;;2.60;;
56171;SDS011;42052;41.634;-0.946;2023-04-03T01:14:10;10.75;;;3.13;;
56171;SDS011;42052;41.634;-0.946;2023-04-03T01:16:56;6.03;;;2.63;;
56171;SDS011;42052;41.634;-0.946;2023-04-03T01:19:42;6.95;;;2.95;;
56171;SDS011;42052;41.634;-0.946;2023-04-03T01:22:39;6.63;;;2.92;;
56171;SDS011;42052;41.634;-0.946;2023-04-03T01:25:48;9.50;;;3.35;;
56171;SDS011;42052;41.634;-0.946;2023-04-03T01:28:36;6.38;;;2.78;;
56171;SDS011;42052;41.634;-0.946;2023-04-03T01:31:27;7.68;;;2.88;;
56171;SDS011;42052;41.634;-0.946;2023-04-03T01:34:18;7.15;;;2.55;;
56171;SDS011;42052;41.634;-0.946;2023-04-03T01:37:05;6.32;;;3.13;;
56171;SDS011;42052;41.634;-0.946;2023-04-03T01:39:51;6.30;;;2.50;;
56171;SDS011;42052;41.634;-0.946;2023-04-03T01:42:37;7.13;;;2.30;;
56171;SDS011;42052;41.634;-0.946;2023-04-03T01:45:23;5.13;;;2.03;;
56171;SDS011;42052;41.634;-0.946;2023-04-03T01:48:09;6.03;;;2.40;;
56171;SDS011;42052;41.634;-0.946;2023-04-03T01:50:55;5.80;;;2.42;;
56171;SDS011;42052;41.634;-0.946;2023-04-03T01:53:41;4.90;;;2.25;;
56171;SDS011;42052;41.634;-0.946;2023-04-03T01:56:27;5.88;;;2.33;;
56171;SDS011;42052;41.634;-0.946;2023-04-03T01:59:13;6.78;;;2.67;;
56171;SDS011;42052;41.634;-0.946;2023-04-03T02:02:02;8.60;;;2.83;;
56171;SDS011;42052;41.634;-0.946;2023-04-03T02:04:48;6.07;;;2.30;;
56171;SDS011;42052;41.634;-0.946;2023-04-03T02:07:34;4.30;;;2.05;;
56171;SDS011;42052;41.634;-0.946;2023-04-03T02:10:21;6.15;;;2.10;;
56171;SDS011;42052;41.634;-0.946;2023-04-03T02:13:07;5.03;;;2.20;;
56171;SDS011;42052;41.634;-0.946;2023-04-03T02:15:53;6.38;;;2.17;;
56171;SDS011;42052;41.634;-0.946;2023-04-03T02:18:39;4.47;;;1.90;;
56171;SDS011;42052;41.634;-0.946;2023-04-03T02:21:25;5.43;;;1.80;;
56171;SDS011;42052;41.634;-0.946;2023-04-03T02:24:12;6.75;;;1.88;;
56171;SDS011;42052;41.634;-0.946;2023-04-03T02:26:58;6.68;;;2.13;;
56171;SDS011;42052;41.634;-0.946;2023-04-03T02:29:44;4.88;;;2.30;;
56171;SDS011;42052;41.634;-0.946;2023-04-03T02:32:30;6.47;;;2.13;;
56171;SDS011;42052;41.634;-0.946;2023-04-03T02:35:17;4.88;;;2.00;;
56171;SDS011;42052;41.634;-0.946;2023-04-03T02:38:03;5.43;;;1.98;;
56171;SDS011;42052;41.634;-0.946;2023-04-03T02:40:49;4.07;;;2.00;;
56171;SDS011;42052;41.634;-0.946;2023-04-03T02:43:36;5.28;;;2.00;;
56171;SDS011;42052;41.634;-0.946;2023-04-03T02:46:23;4.45;;;1.92;;
56171;SDS011;42052;41.634;-0.946;2023-04-03T02:49:09;3.40;;;1.80;;
56171;SDS011;42052;41.634;-0.946;2023-04-03T02:51:55;4.38;;;1.95;;
56171;SDS011;42052;41.634;-0.946;2023-04-03T02:54:41;4.18;;;1.90;;
56171;SDS011;42052;41.634;-0.946;2023-04-03T02:57:27;4.30;;;1.85;;
56171;SDS011;42052;41.634;-0.946;2023-04-03T03:00:13;4.05;;;1.60;;
56171;SDS011;42052;41.634;-0.946;2023-04-03T03:02:59;2.83;;;1.50;;
56171;SDS011;42052;41.634;-0.946;2023-04-03T03:05:45;4.80;;;1.75;;
56171;SDS011;42052;41.634;-0.946;2023-04-03T03:08:33;4.25;;;1.50;;
56171;SDS011;42052;41.634;-0.946;2023-04-03T03:11:20;3.45;;;1.55;;
56171;SDS011;42052;41.634;-0.946;2023-04-03T03:14:07;4.85;;;1.80;;
56171;SDS011;42052;41.634;-0.946;2023-04-03T03:16:53;4.15;;;1.55;;
56171;SDS011;42052;41.634;-0.946;2023-04-03T03:19:39;3.75;;;1.70;;
56171;SDS011;42052;41.634;-0.946;2023-04-03T03:22:25;4.20;;;1.67;;
56171;SDS011;42052;41.634;-0.946;2023-04-03T03:25:11;4.80;;;1.63;;
56171;SDS011;42052;41.634;-0.946;2023-04-03T03:27:57;4.00;;;1.58;;
56171;SDS011;42052;41.634;-0.946;2023-04-03T03:30:43;4.20;;;1.60;;
56171;SDS011;42052;41.634;-0.946;2023-04-03T03:33:30;3.95;;;1.67;;
56171;SDS011;42052;41.634;-0.946;2023-04-03T03:36:16;4.28;;;1.30;;
56171;SDS011;42052;41.634;-0.946;2023-04-03T03:39:02;4.93;;;1.67;;
56171;SDS011;42052;41.634;-0.946;2023-04-03T03:41:48;4.60;;;1.40;;
56171;SDS011;42052;41.634;-0.946;2023-04-03T03:44:35;3.20;;;1.45;;
56171;SDS011;42052;41.634;-0.946;2023-04-03T03:47:21;4.03;;;1.45;;
56171;SDS011;42052;41.634;-0.946;2023-04-03T03:50:08;3.25;;;1.50;;
56171;SDS011;42052;41.634;-0.946;2023-04-03T03:52:54;3.53;;;1.42;;
56171;SDS011;42052;41.634;-0.946;2023-04-03T03:55:40;3.15;;;1.23;;
56171;SDS011;42052;41.634;-0.946;2023-04-03T03:58:27;3.10;;;1.25;;
56171;SDS011;42052;41.634;-0.946;2023-04-03T04:01:13;3.80;;;1.40;;
56171;SDS011;42052;41.634;-0.946;2023-04-03T04:04:00;2.75;;;1.20;;
56171;SDS011;42052;41.634;-0.946;2023-04-03T04:06:46;2.88;;;1.20;;
56171;SDS011;42052;41.634;-0.946;2023-04-03T04:09:32;3.05;;;1.30;;
56171;SDS011;42052;41.634;-0.946;2023-04-03T04:12:19;4.75;;;1.27;;
56171;SDS011;42052;41.634;-0.946;2023-04-03T04:15:05;3.17;;;1.30;;
56171;SDS011;42052;41.634;-0.946;2023-04-03T04:17:52;3.20;;;1.20;;
56171;SDS011;42052;41.634;-0.946;2023-04-03T04:20:38;3.40;;;1.30;;
56171;SDS011;42052;41.634;-0.946;2023-04-03T04:23:25;3.08;;;1.13;;
56171;SDS011;42052;41.634;-0.946;2023-04-03T04:26:14;3.13;;;1.25;;
56171;SDS011;42052;41.634;-0.946;2023-04-03T04:29:00;2.13;;;1.30;;
56171;SDS011;42052;41.634;-0.946;2023-04-03T04:31:46;2.63;;;1.15;;
56171;SDS011;42052;41.634;-0.946;2023-04-03T04:34:32;3.28;;;1.10;;
56171;SDS011;42052;41.634;-0.946;2023-04-03T04:37:18;2.60;;;1.10;;
56171;SDS011;42052;41.634;-0.946;2023-04-03T04:40:05;2.05;;;1.10;;
56171;SDS011;42052;41.634;-0.946;2023-04-03T04:42:52;3.08;;;1.30;;
56171;SDS011;42052;41.634;-0.946;2023-04-03T04:45:38;2.95;;;1.15;;
56171;SDS011;42052;41.634;-0.946;2023-04-03T04:48:24;4.68;;;1.33;;
56171;SDS011;42052;41.634;-0.946;2023-04-03T04:51:10;2.42;;;1.15;;
56171;SDS011;42052;41.634;-0.946;2023-04-03T04:53:56;3.05;;;1.40;;
56171;SDS011;42052;41.634;-0.946;2023-04-03T04:56:42;3.47;;;1.08;;
56171;SDS011;42052;41.634;-0.946;2023-04-03T04:59:29;2.80;;;1.23;;
56171;SDS011;42052;41.634;-0.946;2023-04-03T05:02:15;1.95;;;1.00;;
56171;SDS011;42052;41.634;-0.946;2023-04-03T05:05:01;1.92;;;1.00;;
56171;SDS011;42052;41.634;-0.946;2023-04-03T05:07:47;2.55;;;1.27;;
56171;SDS011;42052;41.634;-0.946;2023-04-03T05:10:33;2.30;;;0.90;;
56171;SDS011;42052;41.634;-0.946;2023-04-03T05:13:20;3.45;;;1.10;;
56171;SDS011;42052;41.634;-0.946;2023-04-03T05:16:06;3.58;;;1.20;;
56171;SDS011;42052;41.634;-0.946;2023-04-03T05:18:52;2.22;;;1.25;;
56171;SDS011;42052;41.634;-0.946;2023-04-03T05:21:38;2.70;;;1.20;;
56171;SDS011;42052;41.634;-0.946;2023-04-03T05:24:25;4.15;;;1.38;;
56171;SDS011;42052;41.634;-0.946;2023-04-03T05:27:11;3.70;;;1.40;;
56171;SDS011;42052;41.634;-0.946;2023-04-03T05:29:57;7.20;;;2.10;;
56171;SDS011;42052;41.634;-0.946;2023-04-03T05:32:44;16.63;;;2.78;;
56171;SDS011;42052;41.634;-0.946;2023-04-03T05:35:30;17.88;;;3.53;;
56171;SDS011;42052;41.634;-0.946;2023-04-03T05:38:17;20.58;;;4.05;;
56171;SDS011;42052;41.634;-0.946;2023-04-03T05:41:04;24.27;;;4.43;;
56171;SDS011;42052;41.634;-0.946;2023-04-03T05:43:50;31.20;;;5.40;;
56171;SDS011;42052;41.634;-0.946;2023-04-03T05:46:36;37.25;;;6.15;;
56171;SDS011;42052;41.634;-0.946;2023-04-03T05:49:22;39.90;;;6.65;;
56171;SDS011;42052;41.634;-0.946;2023-04-03T05:52:11;43.70;;;7.63;;
56171;SDS011;42052;41.634;-0.946;2023-04-03T05:55:12;47.60;;;9.98;;
56171;SDS011;42052;41.634;-0.946;2023-04-03T05:57:58;44.05;;;9.05;;
56171;SDS011;42052;41.634;-0.946;2023-04-03T06:00:44;42.15;;;8.63;;
56171;SDS011;42052;41.634;-0.946;2023-04-03T06:03:30;52.08;;;9.05;;
56171;SDS011;42052;41.634;-0.946;2023-04-03T06:06:16;49.80;;;8.68;;
56171;SDS011;42052;41.634;-0.946;2023-04-03T06:09:03;41.83;;;8.80;;
56171;SDS011;42052;41.634;-0.946;2023-04-03T06:11:49;43.08;;;8.57;;
56171;SDS011;42052;41.634;-0.946;2023-04-03T06:14:35;39.65;;;7.75;;
56171;SDS011;42052;41.634;-0.946;2023-04-03T06:17:21;39.53;;;7.38;;
56171;SDS011;42052;41.634;-0.946;2023-04-03T06:20:09;37.15;;;7.20;;
56171;SDS011;42052;41.634;-0.946;2023-04-03T06:22:55;31.25;;;7.13;;
56171;SDS011;42052;41.634;-0.946;2023-04-03T06:25:45;31.55;;;5.72;;
56171;SDS011;42052;41.634;-0.946;2023-04-03T06:28:31;28.63;;;5.93;;
56171;SDS011;42052;41.634;-0.946;2023-04-03T06:31:17;27.27;;;5.85;;
56171;SDS011;42052;41.634;-0.946;2023-04-03T06:34:03;31.55;;;6.28;;
56171;SDS011;42052;41.634;-0.946;2023-04-03T06:36:51;29.70;;;5.97;;
56171;SDS011;42052;41.634;-0.946;2023-04-03T06:39:37;22.67;;;5.53;;
56171;SDS011;42052;41.634;-0.946;2023-04-03T06:42:24;25.25;;;5.70;;
56171;SDS011;42052;41.634;-0.946;2023-04-03T06:45:10;22.52;;;5.95;;
56171;SDS011;42052;41.634;-0.946;2023-04-03T06:47:57;23.98;;;5.32;;
56171;SDS011;42052;41.634;-0.946;2023-04-03T06:50:43;23.15;;;4.50;;
56171;SDS011;42052;41.634;-0.946;2023-04-03T06:53:29;16.02;;;4.50;;
56171;SDS011;42052;41.634;-0.946;2023-04-03T06:56:15;18.92;;;4.47;;
56171;SDS011;42052;41.634;-0.946;2023-04-03T06:59:02;16.15;;;4.13;;
56171;SDS011;42052;41.634;-0.946;2023-04-03T07:01:48;16.30;;;4.07;;
56171;SDS011;42052;41.634;-0.946;2023-04-03T07:04:35;18.15;;;4.03;;
56171;SDS011;42052;41.634;-0.946;2023-04-03T07:07:21;14.98;;;4.10;;
56171;SDS011;42052;41.634;-0.946;2023-04-03T07:10:08;16.50;;;4.10;;
56171;SDS011;42052;41.634;-0.946;2023-04-03T07:12:54;14.57;;;3.95;;
56171;SDS011;42052;41.634;-0.946;2023-04-03T07:15:41;14.98;;;3.45;;
56171;SDS011;42052;41.634;-0.946;2023-04-03T07:18:27;16.23;;;3.45;;
56171;SDS011;42052;41.634;-0.946;2023-04-03T07:21:13;13.02;;;3.53;;
56171;SDS011;42052;41.634;-0.946;2023-04-03T07:23:59;13.88;;;4.00;;
56171;SDS011;42052;41.634;-0.946;2023-04-03T07:26:49;10.57;;;3.33;;
56171;SDS011;42052;41.634;-0.946;2023-04-03T07:29:35;13.98;;;3.38;;
56171;SDS011;42052;41.634;-0.946;2023-04-03T07:32:21;9.57;;;3.30;;
56171;SDS011;42052;41.634;-0.946;2023-04-03T07:35:08;13.45;;;3.08;;
56171;SDS011;42052;41.634;-0.946;2023-04-03T07:37:54;12.30;;;2.80;;
56171;SDS011;42052;41.634;-0.946;2023-04-03T07:40:40;11.73;;;2.85;;
56171;SDS011;42052;41.634;-0.946;2023-04-03T07:43:35;11.77;;;3.30;;
56171;SDS011;42052;41.634;-0.946;2023-04-03T07:46:21;7.82;;;2.58;;
56171;SDS011;42052;41.634;-0.946;2023-04-03T07:49:08;6.55;;;2.50;;
56171;SDS011;42052;41.634;-0.946;2023-04-03T07:51:54;11.95;;;2.78;;
56171;SDS011;42052;41.634;-0.946;2023-04-03T07:54:41;9.73;;;2.45;;
56171;SDS011;42052;41.634;-0.946;2023-04-03T07:57:27;9.63;;;2.35;;
56171;SDS011;42052;41.634;-0.946;2023-04-03T08:00:13;9.57;;;2.25;;
56171;SDS011;42052;41.634;-0.946;2023-04-03T08:03:00;7.55;;;2.80;;
56171;SDS011;42052;41.634;-0.946;2023-04-03T08:05:47;9.38;;;2.47;;
56171;SDS011;42052;41.634;-0.946;2023-04-03T08:08:35;6.50;;;2.30;;
56171;SDS011;42052;41.634;-0.946;2023-04-03T08:11:21;6.65;;;2.25;;
56171;SDS011;42052;41.634;-0.946;2023-04-03T08:14:09;9.07;;;2.45;;
56171;SDS011;42052;41.634;-0.946;2023-04-03T08:17:00;7.65;;;2.33;;
56171;SDS011;42052;41.634;-0.946;2023-04-03T08:19:48;8.20;;;2.33;;
56171;SDS011;42052;41.634;-0.946;2023-04-03T08:22:34;7.97;;;2.20;;
56171;SDS011;42052;41.634;-0.946;2023-04-03T08:25:20;6.70;;;2.20;;
56171;SDS011;42052;41.634;-0.946;2023-04-03T08:28:07;6.43;;;2.13;;
56171;SDS011;42052;41.634;-0.946;2023-04-03T08:30:54;4.85;;;1.90;;
56171;SDS011;42052;41.634;-0.946;2023-04-03T08:33:40;7.20;;;1.80;;
56171;SDS011;42052;41.634;-0.946;2023-04-03T08:36:27;5.95;;;1.75;;
56171;SDS011;42052;41.634;-0.946;2023-04-03T08:39:16;5.40;;;1.67;;
56171;SDS011;42052;41.634;-0.946;2023-04-03T08:42:03;6.32;;;2.05;;
56171;SDS011;42052;41.634;-0.946;2023-04-03T08:45:17;5.30;;;1.70;;
56171;SDS011;42052;41.634;-0.946;2023-04-03T08:51:14;4.95;;;1.75;;
56171;SDS011;42052;41.634;-0.946;2023-04-03T08:54:03;6.95;;;1.73;;
56171;SDS011;42052;41.634;-0.946;2023-04-03T08:56:54;5.80;;;1.60;;
56171;SDS011;42052;41.634;-0.946;2023-04-03T08:59:41;5.22;;;1.48;;
56171;SDS011;42052;41.634;-0.946;2023-04-03T09:02:29;4.68;;;1.63;;
56171;SDS011;42052;41.634;-0.946;2023-04-03T09:05:20;4.65;;;1.70;;
56171;SDS011;42052;41.634;-0.946;2023-04-03T09:08:26;4.93;;;1.50;;
56171;SDS011;42052;41.634;-0.946;2023-04-03T09:23:32;5.15;;;1.60;;
56171;SDS011;42052;41.634;-0.946;2023-04-03T09:26:36;4.90;;;1.60;;
56171;SDS011;42052;41.634;-0.946;2023-04-03T09:29:30;4.32;;;1.42;;
56171;SDS011;42052;41.634;-0.946;2023-04-03T09:32:25;9.93;;;1.33;;
56171;SDS011;42052;41.634;-0.946;2023-04-03T09:35:33;3.72;;;1.30;;
56171;SDS011;42052;41.634;-0.946;2023-04-03T09:38:22;3.45;;;1.30;;
56171;SDS011;42052;41.634;-0.946;2023-04-03T09:41:21;5.28;;;1.38;;
56171;SDS011;42052;41.634;-0.946;2023-04-03T09:47:30;3.10;;;1.20;;
56171;SDS011;42052;41.634;-0.946;2023-04-03T09:50:20;4.65;;;1.30;;
56171;SDS011;42052;41.634;-0.946;2023-04-03T09:53:29;3.22;;;1.30;;
56171;SDS011;42052;41.634;-0.946;2023-04-03T09:56:28;4.00;;;1.27;;
56171;SDS011;42052;41.634;-0.946;2023-04-03T09:59:15;5.15;;;1.23;;
56171;SDS011;42052;41.634;-0.946;2023-04-03T10:02:28;4.78;;;1.02;;
56171;SDS011;42052;41.634;-0.946;2023-04-03T10:05:27;3.40;;;1.00;;
56171;SDS011;42052;41.634;-0.946;2023-04-03T10:08:22;3.90;;;1.10;;
56171;SDS011;42052;41.634;-0.946;2023-04-03T10:11:14;3.88;;;1.10;;
56171;SDS011;42052;41.634;-0.946;2023-04-03T10:14:02;3.58;;;1.30;;
56171;SDS011;42052;41.634;-0.946;2023-04-03T10:16:59;4.65;;;1.10;;
56171;SDS011;42052;41.634;-0.946;2023-04-03T10:19:55;3.33;;;1.00;;
56171;SDS011;42052;41.634;-0.946;2023-04-03T10:35:52;3.88;;;1.05;;
56171;SDS011;42052;41.634;-0.946;2023-04-03T10:56:37;3.03;;;0.95;;
56171;SDS011;42052;41.634;-0.946;2023-04-03T11:00:01;2.45;;;0.90;;
56171;SDS011;42052;41.634;-0.946;2023-04-03T11:02:45;2.13;;;1.00;;
56171;SDS011;42052;41.634;-0.946;2023-04-03T11:05:41;3.80;;;0.90;;
56171;SDS011;42052;41.634;-0.946;2023-04-03T11:08:38;2.90;;;1.00;;
56171;SDS011;42052;41.634;-0.946;2023-04-03T11:11:44;2.85;;;1.10;;
56171;SDS011;42052;41.634;-0.946;2023-04-03T11:14:31;2.00;;;0.70;;
56171;SDS011;42052;41.634;-0.946;2023-04-03T11:20:29;2.45;;;0.95;;
56171;SDS011;42052;41.634;-0.946;2023-04-03T11:23:22;2.72;;;0.77;;
56171;SDS011;42052;41.634;-0.946;2023-04-03T11:26:18;3.10;;;1.10;;
56171;SDS011;42052;41.634;-0.946;2023-04-03T11:29:08;1.50;;;0.80;;
56171;SDS011;42052;41.634;-0.946;2023-04-03T11:35:44;1.30;;;0.77;;
56171;SDS011;42052;41.634;-0.946;2023-04-03T11:38:37;1.85;;;0.80;;
56171;SDS011;42052;41.634;-0.946;2023-04-03T11:41:29;2.17;;;0.77;;
56171;SDS011;42052;41.634;-0.946;2023-04-03T11:53:30;2.75;;;0.80;;
56171;SDS011;42052;41.634;-0.946;2023-04-03T11:59:16;2.40;;;0.88;;
56171;SDS011;42052;41.634;-0.946;2023-04-03T12:05:29;2.25;;;0.63;;
56171;SDS011;42052;41.634;-0.946;2023-04-03T12:08:23;2.47;;;0.77;;
56171;SDS011;42052;41.634;-0.946;2023-04-03T12:11:23;2.65;;;0.90;;
56171;SDS011;42052;41.634;-0.946;2023-04-03T12:14:16;2.15;;;0.82;;
56171;SDS011;42052;41.634;-0.946;2023-04-03T12:17:03;2.20;;;0.80;;
56171;SDS011;42052;41.634;-0.946;2023-04-03T12:20:45;2.30;;;0.80;;
56171;SDS011;42052;41.634;-0.946;2023-04-03T12:23:33;2.15;;;0.90;;
56171;SDS011;42052;41.634;-0.946;2023-04-03T12:26:22;2.38;;;0.88;;
56171;SDS011;42052;41.634;-0.946;2023-04-03T12:29:25;1.67;;;0.70;;
56171;SDS011;42052;41.634;-0.946;2023-04-03T12:48:30;3.20;;;1.00;;
56171;SDS011;42052;41.634;-0.946;2023-04-03T12:51:23;1.88;;;0.63;;
56171;SDS011;42052;41.634;-0.946;2023-04-03T13:00:18;3.03;;;0.80;;
56171;SDS011;42052;41.634;-0.946;2023-04-03T13:03:24;2.05;;;0.90;;
56171;SDS011;42052;41.634;-0.946;2023-04-03T13:06:16;1.57;;;0.83;;
56171;SDS011;42052;41.634;-0.946;2023-04-03T13:09:06;3.35;;;0.80;;
56171;SDS011;42052;41.634;-0.946;2023-04-03T13:12:07;2.65;;;1.10;;
56171;SDS011;42052;41.634;-0.946;2023-04-03T13:15:01;2.85;;;0.80;;
56171;SDS011;42052;41.634;-0.946;2023-04-03T13:17:57;1.80;;;0.75;;
56171;SDS011;42052;41.634;-0.946;2023-04-03T13:20:43;1.45;;;0.80;;
56171;SDS011;42052;41.634;-0.946;2023-04-03T13:23:34;2.13;;;0.80;;
56171;SDS011;42052;41.634;-0.946;2023-04-03T13:26:24;2.67;;;0.90;;
56171;SDS011;42052;41.634;-0.946;2023-04-03T13:29:26;3.95;;;0.90;;
56171;SDS011;42052;41.634;-0.946;2023-04-03T13:32:18;2.42;;;0.75;;
56171;SDS011;42052;41.634;-0.946;2023-04-03T13:35:28;2.30;;;0.90;;
56171;SDS011;42052;41.634;-0.946;2023-04-03T13:38:26;2.03;;;1.00;;
56171;SDS011;42052;41.634;-0.946;2023-04-03T13:41:23;2.33;;;0.93;;
56171;SDS011;42052;41.634;-0.946;2023-04-03T13:47:20;2.20;;;0.75;;
56171;SDS011;42052;41.634;-0.946;2023-04-03T13:50:20;1.60;;;0.80;;
56171;SDS011;42052;41.634;-0.946;2023-04-03T13:53:11;1.83;;;0.80;;
56171;SDS011;42052;41.634;-0.946;2023-04-03T13:56:07;2.55;;;1.13;;
56171;SDS011;42052;41.634;-0.946;2023-04-03T14:04:52;1.35;;;0.70;;
56171;SDS011;42052;41.634;-0.946;2023-04-03T14:07:43;2.17;;;0.95;;
56171;SDS011;42052;41.634;-0.946;2023-04-03T14:10:29;2.63;;;1.00;;
56171;SDS011;42052;41.634;-0.946;2023-04-03T14:13:17;2.10;;;1.08;;
56171;SDS011;42052;41.634;-0.946;2023-04-03T14:16:04;2.63;;;1.00;;
56171;SDS011;42052;41.634;-0.946;2023-04-03T14:18:51;2.15;;;1.10;;
56171;SDS011;42052;41.634;-0.946;2023-04-03T14:21:38;1.30;;;0.80;;
56171;SDS011;42052;41.634;-0.946;2023-04-03T14:24:24;1.75;;;0.82;;
56171;SDS011;42052;41.634;-0.946;2023-04-03T14:30:02;2.08;;;0.85;;
56171;SDS011;42052;41.634;-0.946;2023-04-03T14:32:50;2.75;;;1.00;;
56171;SDS011;42052;41.634;-0.946;2023-04-03T14:35:36;2.08;;;0.73;;
56171;SDS011;42052;41.634;-0.946;2023-04-03T14:41:14;2.60;;;1.20;;
56171;SDS011;42052;41.634;-0.946;2023-04-03T14:44:02;1.45;;;0.95;;
56171;SDS011;42052;41.634;-0.946;2023-04-03T14:46:48;2.13;;;1.10;;
56171;SDS011;42052;41.634;-0.946;2023-04-03T14:49:34;1.77;;;0.90;;
56171;SDS011;42052;41.634;-0.946;2023-04-03T14:52:27;2.35;;;1.00;;
56171;SDS011;42052;41.634;-0.946;2023-04-03T14:55:19;2.45;;;1.00;;
56171;SDS011;42052;41.634;-0.946;2023-04-03T14:58:08;2.00;;;1.00;;
56171;SDS011;42052;41.634;-0.946;2023-04-03T15:00:57;2.25;;;1.00;;
56171;SDS011;42052;41.634;-0.946;2023-04-03T15:03:44;3.13;;;0.90;;
56171;SDS011;42052;41.634;-0.946;2023-04-03T15:06:30;1.98;;;0.95;;
56171;SDS011;42052;41.634;-0.946;2023-04-03T15:09:19;1.48;;;0.80;;
56171;SDS011;42052;41.634;-0.946;2023-04-03T15:12:08;2.00;;;0.88;;
56171;SDS011;42052;41.634;-0.946;2023-04-03T15:14:55;1.88;;;0.90;;
56171;SDS011;42052;41.634;-0.946;2023-04-03T15:17:41;2.30;;;0.82;;
56171;SDS011;42052;41.634;-0.946;2023-04-03T15:20:29;2.03;;;0.93;;
56171;SDS011;42052;41.634;-0.946;2023-04-03T15:23:16;4.97;;;0.85;;
56171;SDS011;42052;41.634;-0.946;2023-04-03T15:26:02;1.42;;;0.80;;
56171;SDS011;42052;41.634;-0.946;2023-04-03T15:28:49;1.38;;;0.77;;
56171;SDS011;42052;41.634;-0.946;2023-04-03T15:31:36;1.55;;;1.00;;
56171;SDS011;42052;41.634;-0.946;2023-04-03T15:34:22;1.77;;;0.95;;
56171;SDS011;42052;41.634;-0.946;2023-04-03T15:37:08;2.45;;;0.80;;
56171;SDS011;42052;41.634;-0.946;2023-04-03T15:39:55;1.30;;;0.80;;
56171;SDS011;42052;41.634;-0.946;2023-04-03T15:42:41;2.15;;;0.90;;
56171;SDS011;42052;41.634;-0.946;2023-04-03T15:45:28;1.30;;;0.88;;
56171;SDS011;42052;41.634;-0.946;2023-04-03T15:48:15;2.42;;;0.80;;
56171;SDS011;42052;41.634;-0.946;2023-04-03T15:51:02;1.60;;;1.00;;
56171;SDS011;42052;41.634;-0.946;2023-04-03T15:53:48;1.88;;;0.68;;
56171;SDS011;42052;41.634;-0.946;2023-04-03T15:56:34;1.73;;;0.90;;
56171;SDS011;42052;41.634;-0.946;2023-04-03T15:59:21;1.85;;;0.82;;
56171;SDS011;42052;41.634;-0.946;2023-04-03T16:02:07;1.10;;;0.80;;
56171;SDS011;42052;41.634;-0.946;2023-04-03T16:04:55;1.95;;;0.90;;
56171;SDS011;42052;41.634;-0.946;2023-04-03T16:07:42;2.67;;;0.90;;
56171;SDS011;42052;41.634;-0.946;2023-04-03T16:10:28;2.17;;;0.93;;
56171;SDS011;42052;41.634;-0.946;2023-04-03T16:13:15;1.48;;;0.75;;
56171;SDS011;42052;41.634;-0.946;2023-04-03T16:16:01;1.27;;;0.70;;
56171;SDS011;42052;41.634;-0.946;2023-04-03T16:18:47;1.50;;;0.88;;
56171;SDS011;42052;41.634;-0.946;2023-04-03T16:21:37;2.03;;;0.80;;
56171;SDS011;42052;41.634;-0.946;2023-04-03T16:24:24;4.40;;;1.00;;
56171;SDS011;42052;41.634;-0.946;2023-04-03T16:27:10;1.65;;;0.70;;
56171;SDS011;42052;41.634;-0.946;2023-04-03T16:29:57;1.33;;;0.65;;
56171;SDS011;42052;41.634;-0.946;2023-04-03T16:32:43;2.08;;;0.80;;
56171;SDS011;42052;41.634;-0.946;2023-04-03T16:35:30;2.33;;;1.00;;
56171;SDS011;42052;41.634;-0.946;2023-04-03T16:38:16;3.08;;;0.70;;
56171;SDS011;42052;41.634;-0.946;2023-04-03T16:41:04;2.00;;;0.80;;
56171;SDS011;42052;41.634;-0.946;2023-04-03T16:43:50;1.77;;;0.63;;
56171;SDS011;42052;41.634;-0.946;2023-04-03T16:46:36;1.50;;;1.00;;
56171;SDS011;42052;41.634;-0.946;2023-04-03T16:49:22;2.17;;;0.70;;
56171;SDS011;42052;41.634;-0.946;2023-04-03T16:52:09;3.05;;;1.00;;
56171;SDS011;42052;41.634;-0.946;2023-04-03T16:54:57;2.20;;;0.60;;
56171;SDS011;42052;41.634;-0.946;2023-04-03T16:57:44;2.13;;;0.80;;
56171;SDS011;42052;41.634;-0.946;2023-04-03T17:00:30;2.22;;;0.82;;
56171;SDS011;42052;41.634;-0.946;2023-04-03T17:03:16;1.85;;;0.77;;
56171;SDS011;42052;41.634;-0.946;2023-04-03T17:06:03;1.30;;;0.80;;
56171;SDS011;42052;41.634;-0.946;2023-04-03T17:08:51;1.42;;;0.60;;
56171;SDS011;42052;41.634;-0.946;2023-04-03T17:11:37;2.63;;;0.73;;
56171;SDS011;42052;41.634;-0.946;2023-04-03T17:14:24;1.27;;;0.80;;
56171;SDS011;42052;41.634;-0.946;2023-04-03T17:17:10;1.73;;;0.77;;
56171;SDS011;42052;41.634;-0.946;2023-04-03T17:19:56;1.08;;;0.70;;
56171;SDS011;42052;41.634;-0.946;2023-04-03T17:22:43;0.93;;;0.60;;
56171;SDS011;42052;41.634;-0.946;2023-04-03T17:25:29;1.13;;;0.60;;
56171;SDS011;42052;41.634;-0.946;2023-04-03T17:28:16;1.00;;;0.60;;
56171;SDS011;42052;41.634;-0.946;2023-04-03T17:31:02;1.45;;;0.70;;
56171;SDS011;42052;41.634;-0.946;2023-04-03T17:33:48;1.17;;;0.68;;
56171;SDS011;42052;41.634;-0.946;2023-04-03T17:36:34;1.75;;;0.52;;
56171;SDS011;42052;41.634;-0.946;2023-04-03T17:39:21;2.92;;;0.80;;
56171;SDS011;42052;41.634;-0.946;2023-04-03T17:42:07;0.80;;;0.60;;
56171;SDS011;42052;41.634;-0.946;2023-04-03T17:44:53;1.13;;;0.65;;
56171;SDS011;42052;41.634;-0.946;2023-04-03T17:47:40;1.05;;;0.70;;
56171;SDS011;42052;41.634;-0.946;2023-04-03T17:50:26;1.15;;;0.68;;
56171;SDS011;42052;41.634;-0.946;2023-04-03T17:53:13;1.00;;;0.52;;
56171;SDS011;42052;41.634;-0.946;2023-04-03T17:56:09;1.25;;;0.65;;
56171;SDS011;42052;41.634;-0.946;2023-04-03T17:59:00;3.65;;;0.70;;
56171;SDS011;42052;41.634;-0.946;2023-04-03T18:01:46;1.13;;;0.70;;
56171;SDS011;42052;41.634;-0.946;2023-04-03T18:04:32;1.40;;;0.60;;
56171;SDS011;42052;41.634;-0.946;2023-04-03T18:07:19;1.08;;;0.60;;
56171;SDS011;42052;41.634;-0.946;2023-04-03T18:10:06;0.60;;;0.45;;
56171;SDS011;42052;41.634;-0.946;2023-04-03T18:12:53;1.25;;;0.40;;
56171;SDS011;42052;41.634;-0.946;2023-04-03T18:15:40;1.00;;;0.60;;
56171;SDS011;42052;41.634;-0.946;2023-04-03T18:18:30;0.47;;;0.40;;
56171;SDS011;42052;41.634;-0.946;2023-04-03T18:21:16;1.05;;;0.60;;
56171;SDS011;42052;41.634;-0.946;2023-04-03T18:24:03;1.08;;;0.52;;
56171;SDS011;42052;41.634;-0.946;2023-04-03T18:26:57;1.23;;;0.70;;
56171;SDS011;42052;41.634;-0.946;2023-04-03T18:29:50;1.70;;;0.60;;